Time;durP1;ratioP1;P1;durP2;ratioP2;P2;SDS_P1;SDS_P2;PMS_P1;PMS_P2;Temp;Humidity;BMP_temperature;BMP_pressure;BME280_temperature;BME280_humidity;BME280_pressure;Samples;Min_cycle;Max_cycle;Signal;HPM_P1;HPM_P2
2023/08/21 00:00:47;;;;;;;10.43;2.50;;;;;;;18.02;100.00;146254.69;5015893;28;20030;-72
2023/08/21 00:03:12;;;;;;;7.80;1.87;;;;;;;18.00;100.00;152486.94;5020202;28;20374;-71
2023/08/21 00:05:37;;;;;;;6.60;2.10;;;;;;;18.03;100.00;136580.72;5040940;28;20183;-72
2023/08/21 00:08:03;;;;;;;11.23;2.30;;;;;;;18.00;100.00;140513.19;5030614;28;20033;-71
2023/08/21 00:10:30;;;;;;;7.73;2.27;;;;;;;17.98;100.00;137643.28;5019065;28;20021;-72
2023/08/21 00:12:56;;;;;;;6.72;1.90;;;;;;;17.99;100.00;136929.56;5026518;28;20030;-71
2023/08/21 00:15:21;;;;;;;8.13;1.90;;;;;;;18.05;100.00;122647.66;5027247;28;20429;-71
2023/08/21 00:17:47;;;;;;;9.60;2.00;;;;;;;18.03;100.00;118721.16;5026330;28;20025;-71
2023/08/21 00:20:12;;;;;;;7.80;2.23;;;;;;;18.01;100.00;117648.09;5027218;28;20025;-75
2023/08/21 00:22:38;;;;;;;6.87;2.30;;;;;;;18.02;100.00;113377.44;5022425;28;20021;-74
2023/08/21 00:25:04;;;;;;;4.53;1.80;;;;;;;17.98;100.00;112658.09;5023151;28;20480;-74
2023/08/21 00:27:30;;;;;;;8.57;1.90;;;;;;;17.98;100.00;115505.97;5024737;28;20040;-73
2023/08/21 00:29:55;;;;;;;7.80;1.77;;;;;;;17.95;100.00;111939.88;5026323;28;20072;-74
2023/08/21 00:32:21;;;;;;;7.40;1.90;;;;;;;17.95;100.00;114787.09;5018460;28;20424;-74
2023/08/21 00:34:46;;;;;;;11.50;2.67;;;;;;;17.94;100.00;111938.03;5023584;28;20045;-74
2023/08/21 00:37:11;;;;;;;5.77;2.10;;;;;;;17.99;100.00;109813.13;5016484;28;20030;-74
2023/08/21 00:39:37;;;;;;;7.50;1.73;;;;;;;18.01;100.00;105906.75;5026514;28;20558;-74
2023/08/21 00:42:02;;;;;;;6.43;2.33;;;;;;;18.02;100.00;99163.59;5026945;28;20103;-74
2023/08/21 00:44:28;;;;;;;10.53;2.07;;;;;;;18.01;100.00;100227.03;5028988;28;20108;-74
2023/08/21 00:46:54;;;;;;;4.70;1.60;;;;;;;18.05;100.00;94205.56;5029310;28;20094;-75
2023/08/21 00:49:20;;;;;;;5.85;2.22;;;;;;;18.03;100.00;94557.47;5025376;28;20051;-74
2023/08/21 00:51:47;;;;;;;5.13;1.70;;;;;;;18.03;100.00;107331.75;5021517;28;20029;-74
2023/08/21 00:54:12;;;;;;;8.85;2.88;;;;;;;18.02;100.00;102002.19;5019623;28;20465;-74
2023/08/21 00:56:38;;;;;;;7.47;1.77;;;;;;;17.99;100.00;103062.88;5024778;28;20084;-74
2023/08/21 00:59:04;;;;;;;8.60;1.70;;;;;;;17.96;100.00;95255.03;5017110;28;20025;-74
2023/08/21 01:01:30;;;;;;;5.40;1.73;;;;;;;17.94;100.00;95251.03;5023065;28;20382;-74
2023/08/21 01:03:55;;;;;;;7.90;1.98;;;;;;;17.97;100.00;102348.63;5019135;28;20049;-75
2023/08/21 01:06:21;;;;;;;7.37;2.23;;;;;;;17.91;100.00;99854.72;5025330;28;20492;-74
2023/08/21 01:09:16;;;;;;;4.80;2.20;;;;;;;17.95;100.00;86758.66;5021559;28;20528;-74
2023/08/21 01:11:44;;;;;;;5.43;1.92;;;;;;;17.94;100.00;82515.91;5058661;28;20057;-74
2023/08/21 01:14:22;;;;;;;4.80;2.00;;;;;;;17.91;100.00;85338.88;5029769;28;20119;-74
2023/08/21 01:16:53;;;;;;;8.25;1.77;;;;;;;17.85;100.00;88865.81;5025074;28;20057;-74
2023/08/21 01:19:43;;;;;;;5.20;2.13;;;;;;;17.87;100.00;93114.84;5024789;28;20041;-74
2023/08/21 01:22:08;;;;;;;7.07;2.00;;;;;;;17.84;100.00;88156.25;5013355;28;20486;-74
2023/08/21 01:24:34;;;;;;;7.27;1.87;;;;;;;17.87;100.00;82859.41;5021316;28;20034;-74
2023/08/21 01:27:00;;;;;;;6.25;2.08;;;;;;;17.89;100.00;69463.69;5024760;28;20036;-75
2023/08/21 01:29:25;;;;;;;4.60;1.77;;;;;;;17.86;100.00;59615.78;5022423;28;20037;-74
2023/08/21 01:32:06;;;;;;;6.37;2.10;;;;;;;17.86;100.00;54001.66;5017382;28;20034;-73
2023/08/21 01:34:33;;;;;;;5.15;2.20;;;;;;;17.92;100.00;61729.38;5023989;28;20041;-73
2023/08/21 01:36:59;;;;;;;11.38;2.22;;;;;;;17.98;100.00;61384.72;5027560;28;20484;-74
2023/08/21 01:39:25;;;;;;;7.32;2.20;;;;;;;18.02;100.00;67366.84;5017443;28;20021;-74
2023/08/21 01:41:50;;;;;;;5.23;1.87;;;;;;;18.06;100.00;65611.53;5015237;28;20063;-74
2023/08/21 01:44:16;;;;;;;5.97;1.60;;;;;;;18.11;100.00;73716.72;5035412;28;20021;-74
2023/08/21 01:46:41;;;;;;;5.00;2.10;;;;;;;18.15;100.00;73369.16;5025968;28;20536;-73
2023/08/21 01:49:07;;;;;;;7.20;2.20;;;;;;;18.15;100.00;73721.69;5019441;28;20029;-74
2023/08/21 01:51:32;;;;;;;7.33;2.23;;;;;;;18.12;100.00;67378.16;5025645;28;20117;-74
2023/08/21 01:53:57;;;;;;;4.63;1.93;;;;;;;18.20;100.00;65626.97;5019681;28;20054;-74
2023/08/21 01:56:23;;;;;;;7.37;2.30;;;;;;;18.24;100.00;63169.00;5028323;28;20033;-74
2023/08/21 01:58:48;;;;;;;4.57;2.70;;;;;;;18.22;100.00;62112.06;5025219;28;20042;-74
2023/08/21 02:01:14;;;;;;;6.10;1.90;;;;;;;18.22;100.00;68093.56;5028085;28;20022;-74
2023/08/21 02:03:41;;;;;;;4.37;1.70;;;;;;;18.26;100.00;75852.09;5019174;28;20028;-73
2023/08/21 02:06:07;;;;;;;5.18;1.85;;;;;;;18.28;100.00;78325.03;5031067;28;20025;-74
2023/08/21 02:08:33;;;;;;;7.17;2.10;;;;;;;18.31;100.00;82567.00;5017803;28;20119;-74
2023/08/21 02:10:58;;;;;;;8.00;2.70;;;;;;;18.32;100.00;81862.34;5023728;28;20044;-74
2023/08/21 02:13:24;;;;;;;3.42;2.30;;;;;;;18.36;100.00;84695.84;5020689;28;20055;-73
2023/08/21 02:15:50;;;;;;;13.07;2.53;;;;;;;18.38;100.00;76925.44;5027363;28;20120;-74
2023/08/21 02:18:16;;;;;;;4.07;2.00;;;;;;;18.38;100.00;81163.16;5021955;28;20057;-74
2023/08/21 02:20:42;;;;;;;9.52;2.55;;;;;;;18.38;100.00;82223.25;5023239;28;20037;-73
2023/08/21 02:23:08;;;;;;;7.23;2.20;;;;;;;18.42;100.00;82936.41;5021093;28;20109;-74
2023/08/21 02:25:33;;;;;;;5.00;2.35;;;;;;;18.41;100.00;84702.94;5028678;28;20527;-74
2023/08/21 02:27:59;;;;;;;7.73;2.30;;;;;;;18.42;100.00;80815.25;5031324;28;20086;-74
2023/08/21 02:30:25;;;;;;;9.35;2.03;;;;;;;18.41;100.00;85410.31;5025516;28;20546;-74
2023/08/21 02:32:52;;;;;;;10.52;2.58;;;;;;;18.43;100.00;81877.41;5026220;28;20088;-73
2023/08/21 02:35:17;;;;;;;;;;;;;;;18.40;100.00;82226.03;5026758;28;20043;-74
2023/08/21 02:37:43;;;;;;;3.75;2.08;;;;;;;18.38;100.00;85405.31;5022891;28;20029;-74
2023/08/21 02:40:11;;;;;;;8.57;2.37;;;;;;;18.39;100.00;88237.38;5029109;28;20021;-73
2023/08/21 02:42:37;;;;;;;8.88;2.33;;;;;;;18.41;100.00;84702.94;5020230;28;20049;-73
2023/08/21 02:45:07;;;;;;;8.03;2.37;;;;;;;18.40;100.00;86823.28;5030398;28;20432;-72
2023/08/21 02:47:37;;;;;;;7.18;2.28;;;;;;;18.40;100.00;83640.69;5024141;28;20029;-73
2023/08/21 02:50:07;;;;;;;7.13;2.05;;;;;;;18.38;100.00;82223.25;5023519;28;20033;-73
2023/08/21 02:52:33;;;;;;;7.22;2.22;;;;;;;18.34;100.00;80451.16;5022302;28;20048;-73
2023/08/21 02:54:59;;;;;;;5.03;1.77;;;;;;;18.36;100.00;76217.06;5024163;28;20045;-73
2023/08/21 02:57:25;;;;;;;9.57;2.37;;;;;;;18.39;100.00;78338.81;5022283;28;20075;-73
2023/08/21 02:59:50;;;;;;;5.30;1.90;;;;;;;18.34;100.00;75509.47;5020604;28;20477;-73
2023/08/21 03:02:17;;;;;;;8.93;2.23;;;;;;;18.31;100.00;70216.66;5024616;28;20053;-73
2023/08/21 03:04:42;;;;;;;;;;;;;;;18.31;100.00;75505.00;5028071;28;20037;-72
2023/08/21 03:07:08;;;;;;;10.90;2.30;;;;;;;18.32;100.00;76564.81;5028984;28;20387;-73
2023/08/21 03:09:33;;;;;;;11.03;3.50;;;;;;;18.31;100.00;83627.38;5022954;28;20436;-73
2023/08/21 03:11:59;;;;;;;14.87;2.50;;;;;;;18.29;100.00;87869.47;5018800;28;20526;-72
2023/08/21 03:14:26;;;;;;;5.57;2.47;;;;;;;18.24;100.00;80790.88;5027021;28;20495;-73
2023/08/21 03:16:52;;;;;;;4.22;2.03;;;;;;;18.21;100.00;76197.88;5026509;28;20037;-73
2023/08/21 03:19:18;;;;;;;9.97;2.50;;;;;;;18.15;100.00;73369.16;5023867;28;20026;-73
2023/08/21 03:21:44;;;;;;;6.25;2.20;;;;;;;18.02;100.00;68070.13;5022415;28;20036;-74
2023/08/21 03:24:09;;;;;;;7.83;2.30;;;;;;;17.96;100.00;63139.78;5024422;28;20489;-73
2023/08/21 03:26:35;;;;;;;8.37;2.77;;;;;;;17.94;100.00;67357.78;5024192;28;20044;-72
2023/08/21 03:29:01;;;;;;;9.30;2.60;;;;;;;17.92;100.00;64189.59;5027670;28;20021;-73
2023/08/21 03:31:26;;;;;;;5.72;2.28;;;;;;;17.87;100.00;67349.88;5020464;28;20084;-73
2023/08/21 03:33:52;;;;;;;8.13;2.20;;;;;;;17.83;100.00;62071.31;5021561;28;20029;-72
2023/08/21 03:36:18;;;;;;;9.87;3.20;;;;;;;17.80;100.00;60663.19;5029943;28;20025;-72
2023/08/21 03:38:44;;;;;;;8.27;2.40;;;;;;;17.77;100.00;62767.72;5021487;28;20038;-73
2023/08/21 03:41:09;;;;;;;6.77;2.50;;;;;;;17.76;100.00;61712.75;5024088;28;20075;-73
2023/08/21 03:43:35;;;;;;;10.90;2.90;;;;;;;17.81;100.00;54348.19;5027296;28;20036;-73
2023/08/21 03:46:00;;;;;;;8.13;2.40;;;;;;;17.77;100.00;53993.47;5024583;28;20041;-73
2023/08/21 03:48:25;;;;;;;6.40;2.70;;;;;;;17.76;100.00;52590.50;5020307;28;20021;-73
2023/08/21 03:50:51;;;;;;;6.63;2.17;;;;;;;17.80;100.00;49791.22;5026749;28;20037;-73
2023/08/21 03:53:16;;;;;;;8.50;3.00;;;;;;;17.74;100.00;55042.56;5026514;28;20037;-71
2023/08/21 03:55:42;;;;;;;9.03;2.10;;;;;;;17.72;100.00;60655.03;5011991;28;20152;-73
2023/08/21 03:58:07;;;;;;;8.43;2.27;;;;;;;17.73;100.00;55392.28;5026897;28;20116;-71
2023/08/21 04:00:32;;;;;;;10.33;2.47;;;;;;;17.69;100.00;57843.94;5017740;28;20029;-71
2023/08/21 04:02:58;;;;;;;6.80;2.63;;;;;;;17.69;100.00;55038.38;5027479;28;20056;-72
2023/08/21 04:05:23;;;;;;;7.30;2.30;;;;;;;17.62;100.00;55031.88;5021849;28;20116;-73
2023/08/21 04:07:49;;;;;;;11.50;2.63;;;;;;;17.61;100.00;52226.81;5020433;28;20033;-71
2023/08/21 04:10:16;;;;;;;5.67;2.20;;;;;;;17.59;100.00;50123.66;5023550;28;20092;-71
2023/08/21 04:12:41;;;;;;;9.25;2.72;;;;;;;17.58;100.00;49772.69;5024757;28;20100;-71
2023/08/21 04:15:07;;;;;;;7.87;2.77;;;;;;;17.58;100.00;52924.84;5026316;28;20034;-71
2023/08/21 04:17:32;;;;;;;6.05;2.40;;;;;;;17.59;100.00;57834.69;5023479;28;20109;-72
2023/08/21 04:19:58;;;;;;;8.50;2.50;;;;;;;17.62;100.00;56434.00;5024080;28;20393;-72
2023/08/21 04:22:25;;;;;;;11.73;2.33;;;;;;;17.63;100.00;57136.94;5027175;28;20083;-71
2023/08/21 04:24:50;;;;;;;7.15;2.35;;;;;;;17.71;100.00;57495.03;5024350;28;20384;-71
2023/08/21 04:27:15;;;;;;;8.10;2.43;;;;;;;17.69;100.00;61706.00;5021881;28;20030;-72
2023/08/21 04:29:41;;;;;;;10.80;2.60;;;;;;;17.75;100.00;58200.72;5028616;28;20479;-71
2023/08/21 04:32:06;;;;;;;9.77;2.50;;;;;;;17.80;100.00;53996.19;5023892;28;20027;-71
2023/08/21 04:34:32;;;;;;;6.80;2.17;;;;;;;17.83;100.00;51545.38;5029139;28;20029;-72
2023/08/21 04:36:58;;;;;;;6.78;2.22;;;;;;;17.82;100.00;53296.84;5019762;28;20037;-71
2023/08/21 04:39:23;;;;;;;12.10;2.70;;;;;;;17.92;100.00;53306.31;5028472;28;20053;-71
2023/08/21 04:41:48;;;;;;;5.23;2.10;;;;;;;17.94;100.00;52957.50;5024099;28;20026;-72
2023/08/21 04:44:14;;;;;;;7.40;2.73;;;;;;;17.98;100.00;53311.69;5022150;28;20026;-72
2023/08/21 04:46:39;;;;;;;11.37;3.17;;;;;;;17.99;100.00;55066.22;5019727;28;20037;-71
2023/08/21 04:49:05;;;;;;;6.83;2.30;;;;;;;17.98;100.00;55766.97;5027951;28;20049;-72
2023/08/21 04:51:31;;;;;;;4.97;2.13;;;;;;;17.95;100.00;59625.31;5025662;28;20417;-71
2023/08/21 04:53:56;;;;;;;12.53;3.27;;;;;;;17.87;100.00;60670.84;5023248;28;20077;-71
2023/08/21 04:56:22;;;;;;;6.67;2.33;;;;;;;17.86;100.00;63128.63;5023606;28;20065;-71
2023/08/21 04:58:47;;;;;;;7.40;2.60;;;;;;;17.83;100.00;59964.38;5028796;28;20477;-71
2023/08/21 05:01:13;;;;;;;7.83;2.90;;;;;;;17.77;100.00;56799.56;5018804;28;20033;-71
2023/08/21 05:03:38;;;;;;;9.57;2.67;;;;;;;17.72;100.00;57495.97;5022124;28;20389;-72
2023/08/21 05:06:03;;;;;;;6.83;2.73;;;;;;;17.67;100.00;62406.38;5026204;28;20040;-73
2023/08/21 05:08:29;;;;;;;9.60;3.10;;;;;;;17.68;100.00;58895.72;5021949;28;20029;-72
2023/08/21 05:10:55;;;;;;;7.00;2.60;;;;;;;17.66;100.00;55736.41;5028398;28;20026;-72
2023/08/21 05:13:21;;;;;;;;;;;;;;;17.67;100.00;58543.78;5030299;28;20071;-72
2023/08/21 05:15:52;;;;;;;5.57;2.10;;;;;;;17.72;100.00;60304.38;5025120;28;20007;-72
2023/08/21 05:18:17;;;;;;;9.05;3.00;;;;;;;17.78;100.00;57151.38;5020980;28;20071;-72
2023/08/21 05:20:42;;;;;;;15.37;2.73;;;;;;;17.87;100.00;54704.38;5028097;28;20052;-73
2023/08/21 05:23:08;;;;;;;6.80;2.60;;;;;;;17.86;100.00;55404.91;5022454;28;20025;-72
2023/08/21 05:25:33;;;;;;;7.53;2.27;;;;;;;17.88;100.00;56459.22;5027304;28;20120;-72
2023/08/21 05:27:58;;;;;;;13.60;3.00;;;;;;;17.90;100.00;57513.44;5028833;28;20025;-72
2023/08/21 05:30:25;;;;;;;13.03;3.90;;;;;;;17.90;100.00;62430.00;5022108;28;20037;-73
2023/08/21 05:32:50;;;;;;;8.18;2.60;;;;;;;17.96;100.00;59626.31;5028911;28;20033;-72
2023/08/21 05:35:16;;;;;;;8.23;3.13;;;;;;;17.97;100.00;62437.91;5024787;28;20116;-73
2023/08/21 05:37:41;;;;;;;11.23;2.67;;;;;;;18.02;100.00;62091.69;5023080;28;20026;-72
2023/08/21 05:40:07;;;;;;;11.77;2.20;;;;;;;18.07;100.00;63150.94;5023368;28;20029;-72
2023/08/21 05:42:33;;;;;;;6.75;2.70;;;;;;;18.04;100.00;65258.13;5022727;28;20036;-72
2023/08/21 05:44:58;;;;;;;8.77;2.30;;;;;;;18.11;100.00;68080.44;5020328;28;20030;-72
2023/08/21 05:47:24;;;;;;;12.67;3.17;;;;;;;18.17;100.00;62810.47;5016363;28;20103;-72
2023/08/21 05:49:50;;;;;;;15.98;2.88;;;;;;;18.23;100.00;64574.78;5014822;28;20037;-72
2023/08/21 05:52:15;;;;;;;13.27;3.20;;;;;;;18.27;100.00;65283.34;5020913;28;20052;-72
2023/08/21 05:54:40;;;;;;;6.77;2.23;;;;;;;18.32;100.00;67752.31;5023012;28;20057;-72
2023/08/21 05:57:06;;;;;;;13.97;2.70;;;;;;;18.40;100.00;68818.06;5027984;28;20038;-72
2023/08/21 05:59:32;;;;;;;8.77;3.20;;;;;;;18.46;100.00;71644.84;5030725;28;20393;-73
2023/08/21 06:01:58;;;;;;;10.65;2.88;;;;;;;18.54;100.00;75887.72;5024707;28;20714;-71
2023/08/21 06:04:24;;;;;;;20.47;3.83;;;;;;;18.56;100.00;82955.16;5028265;28;20037;-72
2023/08/21 06:06:49;;;;;;;7.47;2.67;;;;;;;18.64;100.00;84734.81;5021997;28;20371;-72
2023/08/21 06:09:17;;;;;;;13.03;4.23;;;;;;;18.68;100.00;87572.00;5025428;28;20050;-72
2023/08/21 06:11:42;;;;;;;15.48;3.78;;;;;;;18.72;100.00;91120.28;5029052;28;20970;-72
2023/08/21 06:14:07;;;;;;;16.97;4.20;;;;;;;18.90;100.00;86542.47;5028101;28;20049;-71
2023/08/21 06:16:33;;;;;;;32.00;4.33;;;;;;;19.08;100.00;92948.50;5027799;28;20036;-73
2023/08/21 06:18:58;;;;;;;15.33;2.90;;;;;;;19.32;100.00;100801.25;5025606;28;20385;-73
2023/08/21 06:21:23;;;;;;;22.70;3.93;;;;;;;19.42;100.00;115425.94;5044496;28;20052;-72
2023/08/21 06:23:49;;;;;;;16.47;4.43;;;;;;;19.55;100.00;130831.06;5028762;28;20025;-72
2023/08/21 06:26:14;;;;;;;12.97;3.27;;;;;;;19.56;100.00;132625.41;5028767;28;20048;-72
2023/08/21 06:28:39;;;;;;;17.63;3.83;;;;;;;19.58;100.00;127971.69;5026383;28;20405;-72
2023/08/21 06:31:07;;;;;;;17.73;3.43;;;;;;;19.63;100.00;125477.13;5027866;28;20068;-72
2023/08/21 06:33:33;;;;;;;15.45;3.55;;;;;;;19.74;100.00;132306.63;5027728;28;20025;-72
2023/08/21 06:35:58;;;;;;;18.48;3.85;;;;;;;19.89;100.00;140238.09;5024991;28;20045;-72
2023/08/21 06:38:24;;;;;;;32.53;5.03;;;;;;;19.94;100.00;142407.91;5025384;28;20385;-72
2023/08/21 06:40:50;;;;;;;16.53;3.43;;;;;;;20.11;100.00;131311.97;5023396;28;20473;-72
2023/08/21 06:43:16;;;;;;;30.70;3.70;;;;;;;20.26;100.00;154115.75;5025354;28;20047;-73
2023/08/21 06:45:41;;;;;;;13.17;3.27;;;;;;;20.24;100.00;156530.97;5023214;28;20041;-73
2023/08/21 06:48:07;;;;;;;19.97;3.73;;;;;;;20.41;100.00;156573.97;5024437;28;20033;-73
2023/08/21 06:50:32;;;;;;;15.10;3.67;;;;;;;20.65;100.00;156637.91;5020909;28;20037;-74
2023/08/21 06:52:58;;;;;;;16.73;4.10;;;;;;;20.72;100.00;156654.88;5021833;28;20370;-73
2023/08/21 06:55:23;;;;;;;13.37;2.73;;;;;;;20.74;100.00;156660.06;5030097;28;20072;-73
2023/08/21 06:57:48;;;;;;;20.77;3.57;;;;;;;20.79;100.00;156674.44;5021981;28;20501;-73
2023/08/21 07:00:14;;;;;;;12.97;2.37;;;;;;;20.98;100.00;156724.06;5021577;28;20512;-73
2023/08/21 07:02:39;;;;;;;16.40;3.00;;;;;;;21.17;100.00;156773.69;5031682;28;20481;-72
2023/08/21 07:05:05;;;;;;;19.73;3.30;;;;;;;21.07;100.00;156747.56;5025853;28;20493;-73
2023/08/21 07:07:30;;;;;;;13.23;3.67;;;;;;;21.59;100.00;156882.03;5022914;28;20124;-74
2023/08/21 07:09:56;;;;;;;13.70;2.73;;;;;;;21.85;100.00;156951.31;5021861;28;20030;-73
2023/08/21 07:12:22;;;;;;;12.23;3.23;;;;;;;21.90;100.00;156963.03;5025477;28;20382;-73
2023/08/21 07:14:47;;;;;;;23.88;3.85;;;;;;;22.40;100.00;157094.97;5030118;28;20120;-73
2023/08/21 07:17:13;;;;;;;20.73;3.43;;;;;;;22.99;100.00;157247.94;5023281;28;20128;-73
2023/08/21 07:19:39;;;;;;;26.37;3.23;;;;;;;22.48;100.00;157115.94;5025354;28;20021;-73
2023/08/21 07:22:04;;;;;;;17.10;3.17;;;;;;;22.84;100.00;157210.00;5026926;28;20301;-73
2023/08/21 07:24:29;;;;;;;14.20;2.70;;;;;;;23.51;100.00;157385.22;5025237;28;20079;-74
2023/08/21 07:26:55;;;;;;;19.07;3.53;;;;;;;23.80;100.00;157461.03;5021491;28;20025;-73
2023/08/21 07:29:20;;;;;;;12.23;3.80;;;;;;;23.93;100.00;157495.13;5031382;28;20025;-74
2023/08/21 07:31:45;;;;;;;17.17;3.53;;;;;;;23.11;100.00;157280.56;5020355;28;20072;-73
2023/08/21 07:34:11;;;;;;;13.47;3.13;;;;;;;22.56;100.00;157135.56;5021574;28;20465;-73
2023/08/21 07:36:36;;;;;;;20.40;3.67;;;;;;;22.32;100.00;157072.78;5023053;28;20033;-73
2023/08/21 07:39:02;;;;;;;10.70;2.87;;;;;;;22.27;100.00;157059.69;5025799;28;20223;-73
2023/08/21 07:41:27;;;;;;;16.03;3.00;;;;;;;22.51;100.00;157123.75;5024283;28;20021;-73
2023/08/21 07:43:52;;;;;;;12.97;3.37;;;;;;;23.11;100.00;157280.56;5022289;28;20428;-73
2023/08/21 07:46:18;;;;;;;16.07;2.50;;;;;;;23.40;100.00;157356.47;5020566;28;20038;-73
2023/08/21 07:48:45;;;;;;;14.93;2.90;;;;;;;23.64;100.00;157419.19;5023021;28;20026;-74
2023/08/21 07:51:10;;;;;;;;;;;;;;;23.48;100.00;157376.09;5021648;28;20111;-73
2023/08/21 07:53:36;;;;;;;22.75;2.85;;;;;;;23.49;100.00;157378.69;5030488;28;19960;-73
2023/08/21 07:56:03;;;;;;;14.00;2.65;;;;;;;23.34;100.00;157340.78;5021760;28;20056;-74
2023/08/21 07:58:29;;;;;;;15.27;2.95;;;;;;;23.41;100.00;157359.06;5026163;28;20069;-74
2023/08/21 08:00:55;;;;;;;16.10;2.97;;;;;;;23.45;100.00;157368.22;5029356;28;20116;-74
2023/08/21 08:03:20;;;;;;;9.80;2.35;;;;;;;23.31;100.00;157331.66;5020320;28;20397;-73
2023/08/21 08:05:45;;;;;;;16.50;3.13;;;;;;;23.48;100.00;157376.09;5018707;28;20393;-73
2023/08/21 08:08:11;;;;;;;16.50;2.80;;;;;;;23.43;100.00;157363.00;5021493;28;20486;-74
2023/08/21 08:10:38;;;;;;;12.03;2.70;;;;;;;23.41;100.00;157357.75;5024888;28;20034;-74
2023/08/21 08:13:04;;;;;;;12.60;2.60;;;;;;;23.49;100.00;157378.69;5021341;28;20037;-73
2023/08/21 08:15:29;;;;;;;11.10;2.50;;;;;;;23.49;100.00;157378.69;5021852;28;20385;-74
2023/08/21 08:17:55;;;;;;;20.20;2.53;;;;;;;23.42;100.00;157360.41;5028536;28;20052;-73
2023/08/21 08:20:20;;;;;;;20.73;3.78;;;;;;;23.27;100.00;157321.19;5021179;28;20064;-74
2023/08/21 08:22:46;;;;;;;14.73;2.83;;;;;;;23.39;100.00;157353.88;5025827;28;20461;-74
2023/08/21 08:25:11;;;;;;;18.23;3.07;;;;;;;23.47;100.00;157374.75;5022090;28;20064;-74
2023/08/21 08:27:37;;;;;;;13.97;2.47;;;;;;;23.57;100.00;157399.59;5033513;28;20055;-74
2023/08/21 08:30:04;;;;;;;13.60;2.38;;;;;;;23.67;100.00;157427.06;5023404;28;20116;-74
2023/08/21 08:32:29;;;;;;;;;;;;;;;23.70;100.00;157433.63;5023823;28;20029;-74
2023/08/21 08:34:55;;;;;;;20.30;3.55;;;;;;;23.80;100.00;157461.03;5016334;28;19913;-74
2023/08/21 08:37:20;;;;;;;16.40;2.43;;;;;;;23.87;100.00;157478.06;5025919;28;20037;-74
2023/08/21 08:39:47;;;;;;;11.20;2.40;;;;;;;24.01;100.00;157514.75;5027537;28;20500;-74
2023/08/21 08:42:14;;;;;;;10.15;2.63;;;;;;;24.11;100.00;157540.91;5020761;28;20050;-74
2023/08/21 08:44:41;;;;;;;10.57;2.45;;;;;;;24.00;100.00;157512.16;5017266;28;20065;-74
2023/08/21 08:47:07;;;;;;;16.70;2.78;;;;;;;24.14;100.00;157548.75;5022643;28;20022;-74
2023/08/21 08:49:33;;;;;;;16.25;2.70;;;;;;;24.23;100.00;157572.31;5020254;28;20120;-74
2023/08/21 08:52:00;;;;;;;15.00;2.83;;;;;;;24.33;100.00;157598.47;5027582;28;20536;-74
2023/08/21 08:54:27;;;;;;;14.27;2.42;;;;;;;24.47;100.00;157635.06;5023713;28;20489;-74
2023/08/21 08:56:53;;;;;;;10.77;2.55;;;;;;;24.25;100.00;157577.50;5022349;28;20112;-74
2023/08/21 08:59:18;;;;;;;;;;;;;;;24.37;100.00;157608.91;5023974;28;20579;-74
2023/08/21 09:01:44;;;;;;;21.85;3.30;;;;;;;24.54;100.00;157653.44;5021373;28;19960;-74
2023/08/21 09:04:10;;;;;;;10.57;2.40;;;;;;;24.63;100.00;157677.00;5025647;28;20025;-74
2023/08/21 09:06:36;;;;;;;8.77;2.30;;;;;;;24.74;100.00;157707.09;5035832;28;20041;-73
2023/08/21 09:09:02;;;;;;;13.88;3.17;;;;;;;24.81;100.00;157724.13;5023450;28;20393;-74
2023/08/21 09:11:27;;;;;;;12.27;2.10;;;;;;;25.00;100.00;157773.84;5025054;28;20163;-73
2023/08/21 09:13:54;;;;;;;9.15;2.35;;;;;;;25.22;100.00;157831.44;5016280;28;20041;-74
2023/08/21 09:16:20;;;;;;;12.25;2.17;;;;;;;25.36;100.00;157868.16;5025729;28;20026;-74
2023/08/21 09:18:49;;;;;;;;;;;;;;;25.46;100.00;157895.63;5017171;28;20069;-73
2023/08/21 09:21:23;;;;;;;16.60;3.55;;;;;;;25.28;100.00;157848.50;5023144;28;19909;-73
2023/08/21 09:23:55;;;;;;;22.35;4.03;;;;;;;25.52;100.00;157911.38;5020334;28;20030;-74
2023/08/21 09:26:22;;;;;;;14.52;3.13;;;;;;;25.49;100.00;157902.16;5018832;28;20486;-73
2023/08/21 09:28:48;;;;;;;17.25;2.42;;;;;;;25.55;100.00;157919.22;5024629;28;20076;-73
2023/08/21 09:31:14;;;;;;;11.18;2.35;;;;;;;25.74;100.00;157969.00;5029736;28;20040;-74
2023/08/21 09:33:40;;;;;;;11.43;2.33;;;;;;;25.66;100.00;157946.72;5029367;28;20025;-73
2023/08/21 09:36:05;;;;;;;11.40;2.88;;;;;;;25.88;100.00;158004.34;5030068;28;20283;-73
2023/08/21 09:38:30;;;;;;;11.67;2.63;;;;;;;26.25;100.00;158101.31;5029474;28;20040;-74
2023/08/21 09:40:56;;;;;;;9.80;2.10;;;;;;;26.00;100.00;158035.81;5029159;28;20120;-74
2023/08/21 09:43:23;;;;;;;7.63;1.93;;;;;;;26.31;100.00;158118.31;5029528;28;20496;-71
2023/08/21 09:45:55;;;;;;;11.68;2.45;;;;;;;26.38;100.00;158135.38;5025173;28;20052;-71
2023/08/21 09:48:23;;;;;;;15.68;2.70;;;;;;;26.29;100.00;158111.78;5023670;28;20033;-72
2023/08/21 09:50:50;;;;;;;11.32;2.60;;;;;;;26.36;100.00;158130.16;5027473;28;20504;-71
2023/08/21 09:53:16;;;;;;;8.43;1.90;;;;;;;25.87;100.00;158003.03;5032225;28;20059;-71
2023/08/21 09:55:42;;;;;;;7.15;1.65;;;;;;;25.90;100.00;158009.56;5028067;28;20559;-72
2023/08/21 09:58:09;;;;;;;12.80;2.03;;;;;;;26.36;100.00;158131.44;5031691;28;20121;-71
2023/08/21 10:00:37;;;;;;;4.63;1.35;;;;;;;25.67;100.00;157949.34;5031088;28;20042;-72
2023/08/21 10:03:04;;;;;;;8.82;2.13;;;;;;;25.31;100.00;157855.06;5028037;28;20428;-72
2023/08/21 10:05:32;;;;;;;9.70;1.83;;;;;;;26.09;100.00;158059.41;5025289;28;20385;-72
2023/08/21 10:08:03;;;;;;;7.07;2.10;;;;;;;26.48;100.00;158162.91;5031409;28;20037;-71
2023/08/21 10:10:38;;;;;;;6.40;1.83;;;;;;;26.47;100.00;158158.97;5027664;28;20025;-71
2023/08/21 10:13:06;;;;;;;13.32;1.30;;;;;;;26.85;100.00;158259.94;5024058;28;20099;-71
2023/08/21 10:15:33;;;;;;;6.68;1.80;;;;;;;26.83;100.00;158254.66;5026294;28;20028;-72
2023/08/21 10:18:18;;;;;;;8.02;1.70;;;;;;;26.06;100.00;158051.53;5023541;28;20377;-72
2023/08/21 10:20:43;;;;;;;9.88;1.90;;;;;;;25.61;100.00;157933.63;5027748;28;20392;-72
2023/08/21 10:23:09;;;;;;;7.07;1.53;;;;;;;25.68;100.00;157951.94;5027702;28;20024;-71
2023/08/21 10:25:41;;;;;;;9.23;1.77;;;;;;;25.56;100.00;157920.53;5025642;28;20410;-72
2023/08/21 10:28:07;;;;;;;10.50;1.40;;;;;;;25.76;100.00;157972.94;5024133;28;20029;-71
2023/08/21 10:30:33;;;;;;;6.43;1.65;;;;;;;26.20;100.00;158088.22;5024251;28;20047;-71
2023/08/21 10:32:59;;;;;;;7.55;1.98;;;;;;;26.63;100.00;158200.94;5026982;28;20026;-71
2023/08/21 10:35:29;;;;;;;8.40;2.15;;;;;;;26.53;100.00;158176.00;5029076;28;20033;-71
2023/08/21 10:38:07;;;;;;;9.90;1.77;;;;;;;26.83;100.00;158253.38;5021741;28;20034;-71
2023/08/21 10:40:34;;;;;;;7.05;1.92;;;;;;;27.18;100.00;158345.13;5030591;28;20492;-71
2023/08/21 10:43:00;;;;;;;11.35;1.80;;;;;;;27.39;100.00;158401.53;5028699;28;20044;-71
2023/08/21 10:45:25;;;;;;;8.95;1.42;;;;;;;26.56;100.00;158183.91;5027694;28;20053;-70
2023/08/21 10:47:50;;;;;;;10.57;2.33;;;;;;;25.95;100.00;158022.72;5026765;28;20430;-71
2023/08/21 10:50:16;;;;;;;12.67;1.77;;;;;;;25.77;100.00;157976.81;5026873;28;20112;-71
2023/08/21 10:52:46;;;;;;;5.32;1.65;;;;;;;26.19;100.00;158085.59;5027745;28;20432;-72
2023/08/21 10:55:15;;;;;;;9.38;2.78;;;;;;;26.81;100.00;158249.44;5024961;28;20056;-72
2023/08/21 10:57:41;;;;;;;8.23;1.98;;;;;;;26.34;100.00;158124.88;5023700;28;20176;-71
2023/08/21 11:00:12;;;;;;;12.70;1.70;;;;;;;26.00;100.00;158035.81;5027897;28;20139;-71
2023/08/21 11:02:40;;;;;;;8.23;1.52;;;;;;;25.95;100.00;158022.72;5026171;28;20053;-71
2023/08/21 11:05:07;;;;;;;5.22;1.42;;;;;;;26.51;100.00;158170.75;5028779;28;20025;-71
2023/08/21 11:07:45;;;;;;;4.90;1.60;;;;;;;26.06;100.00;158051.53;5023073;28;20033;-73
2023/08/21 11:10:15;;;;;;;7.60;1.48;;;;;;;26.70;100.00;158219.28;5021782;28;20033;-70
2023/08/21 11:12:57;;;;;;;9.23;1.90;;;;;;;27.17;100.00;158343.84;5024938;28;20127;-71
2023/08/21 11:15:24;;;;;;;7.82;1.70;;;;;;;27.11;100.00;158326.75;5024760;28;20072;-70